Time;durP1;ratioP1;P1;durP2;ratioP2;P2;SDS_P1;SDS_P2;PMS_P1;PMS_P2;Temp;Humidity;BMP_temperature;BMP_pressure;BME280_temperature;BME280_humidity;BME280_pressure;Samples;Min_cycle;Max_cycle;Signal;HPM_P1;HPM_P2
2022/11/14 00:02:08;;;;;;;2.67;2.10;;;;;;;5.15;100.00;100776.06;5030376;28;20217;-75
2022/11/14 00:04:33;;;;;;;1.57;1.57;;;;;;;5.12;100.00;100773.88;5033416;28;20172;-79
2022/11/14 00:06:59;;;;;;;20.50;5.80;;;;;;;5.05;100.00;100763.28;5034635;28;20206;-77
2022/11/14 00:09:27;;;;;;;14.13;10.27;;;;;;;4.98;100.00;100766.25;5034673;28;20180;-78
2022/11/14 00:11:53;;;;;;;7.30;5.93;;;;;;;4.96;100.00;100759.50;5034674;28;20190;-76
2022/11/14 00:14:19;;;;;;;10.27;6.20;;;;;;;4.89;100.00;100761.63;5034243;28;20200;-78
2022/11/14 00:16:45;;;;;;;7.30;5.53;;;;;;;4.87;100.00;100761.88;5034509;28;20187;-76
2022/11/14 00:19:10;;;;;;;2.43;2.30;;;;;;;4.90;100.00;100765.97;5034897;28;20718;-79
2022/11/14 00:21:36;;;;;;;0.10;0.10;;;;;;;5.03;100.00;100754.63;5034416;28;20180;-75
2022/11/14 00:24:01;;;;;;;2.03;2.00;;;;;;;5.12;100.00;100763.06;5034152;28;20274;-76
2022/11/14 00:26:26;;;;;;;0.67;0.67;;;;;;;5.06;100.00;100759.50;5034369;28;20210;-78
2022/11/14 00:28:53;;;;;;;12.93;1.63;;;;;;;4.99;100.00;100759.78;5034390;28;20180;-78
2022/11/14 00:31:18;;;;;;;2.00;1.93;;;;;;;5.02;100.00;100756.53;5034052;28;20258;-78
2022/11/14 00:33:44;;;;;;;2.53;2.33;;;;;;;5.07;100.00;100750.31;5033793;28;20305;-78
2022/11/14 00:36:09;;;;;;;3.27;3.10;;;;;;;5.11;100.00;100746.00;5034339;28;20183;-82
2022/11/14 00:38:34;;;;;;;0.00;0.00;;;;;;;5.06;100.00;100743.25;5016271;28;20211;-83
2022/11/14 00:40:59;;;;;;;2.53;2.33;;;;;;;5.00;100.00;100738.91;5034143;28;20592;-81
2022/11/14 00:43:25;;;;;;;2.50;2.43;;;;;;;4.96;100.00;100737.84;5033927;28;20199;-87
2022/11/14 00:45:50;;;;;;;8.93;4.33;;;;;;;4.89;100.00;100734.56;5033752;28;20234;-85
2022/11/14 00:48:16;;;;;;;11.03;4.80;;;;;;;4.90;100.00;100726.16;5033826;28;20544;-81
2022/11/14 00:50:41;;;;;;;0.50;0.50;;;;;;;4.94;100.00;100723.75;5033839;28;20180;-82
2022/11/14 00:53:07;;;;;;;0.67;0.67;;;;;;;4.98;100.00;100730.25;5033445;28;20698;-85
2022/11/14 00:55:32;;;;;;;0.77;0.77;;;;;;;5.01;100.00;100730.53;5033720;28;20201;-84
2022/11/14 00:57:57;;;;;;;0.00;0.00;;;;;;;4.95;100.00;100725.38;5033554;28;20188;-80
2022/11/14 01:00:23;;;;;;;1.53;1.43;;;;;;;5.00;100.00;100726.19;5015852;28;20176;-85
2022/11/14 01:02:48;;;;;;;0.20;0.20;;;;;;;5.00;100.00;100722.69;5033254;28;20180;-84
2022/11/14 01:05:13;;;;;;;1.80;1.70;;;;;;;4.91;100.00;100724.25;5033645;28;20191;-84
2022/11/14 01:07:39;;;;;;;5.70;5.17;;;;;;;4.87;100.00;100723.19;5033380;28;20187;-83
2022/11/14 01:10:05;;;;;;;3.10;2.53;;;;;;;4.93;100.00;100716.72;5033417;28;20245;-75
2022/11/14 01:12:33;;;;;;;0.40;0.40;;;;;;;4.89;100.00;100712.91;5033381;28;20191;-80
2022/11/14 01:14:58;;;;;;;3.37;1.47;;;;;;;4.81;100.00;100716.94;5035185;28;20290;-74
2022/11/14 01:17:25;;;;;;;0.83;0.70;;;;;;;4.95;100.00;100720.78;5034770;28;20683;-75
2022/11/14 01:19:51;;;;;;;4.30;4.00;;;;;;;5.00;100.00;100718.06;5033687;28;20176;-75
2022/11/14 01:22:16;;;;;;;0.00;0.00;;;;;;;4.99;100.00;100712.94;5033647;28;20176;-75
2022/11/14 01:24:41;;;;;;;1.17;1.17;;;;;;;4.94;100.00;100708.31;5033030;28;20188;-75
2022/11/14 01:27:07;;;;;;;4.80;4.43;;;;;;;4.89;100.00;100707.47;5033152;28;20309;-75
2022/11/14 01:29:32;;;;;;;3.10;2.93;;;;;;;4.86;100.00;100699.91;5033084;28;20172;-75
2022/11/14 01:31:57;;;;;;;0.97;0.97;;;;;;;4.89;100.00;100688.53;5033074;28;20183;-77
2022/11/14 01:34:23;;;;;;;0.50;0.50;;;;;;;4.86;100.00;100687.19;5032815;28;20207;-76
2022/11/14 01:36:48;;;;;;;9.90;4.70;;;;;;;4.81;100.00;100686.38;5032854;28;20268;-75
2022/11/14 01:39:13;;;;;;;3.07;1.83;;;;;;;4.74;100.00;100683.91;5032718;28;20175;-76
2022/11/14 01:41:38;;;;;;;12.27;10.53;;;;;;;4.75;100.00;100683.63;5032591;28;20183;-75
2022/11/14 01:44:30;;;;;;;2.00;1.90;;;;;;;4.69;100.00;100676.59;5032642;28;20179;-76
2022/11/14 01:46:56;;;;;;;4.83;4.47;;;;;;;4.70;100.00;100680.91;5021705;28;20243;-86
2022/11/14 01:49:25;;;;;;;2.83;2.73;;;;;;;4.68;100.00;100666.03;5032760;28;20178;-86
2022/11/14 01:52:02;;;;;;;2.87;2.67;;;;;;;4.68;100.00;100666.84;5033522;28;20187;-85
2022/11/14 01:54:31;;;;;;;0.13;0.13;;;;;;;4.71;100.00;100655.47;5032645;28;20203;-86
2022/11/14 01:57:00;;;;;;;8.33;2.10;;;;;;;4.73;100.00;100650.59;5032608;28;20179;-86
2022/11/14 01:59:34;;;;;;;8.67;7.83;;;;;;;4.68;100.00;100657.91;5032574;28;20172;-86
2022/11/14 02:02:09;;;;;;;3.10;2.90;;;;;;;4.69;100.00;100646.81;5032151;28;20187;-87
2022/11/14 02:04:40;;;;;;;4.80;0.93;;;;;;;4.66;100.00;100660.06;5032210;28;20652;-86
2022/11/14 02:07:08;;;;;;;12.20;3.20;;;;;;;4.55;100.00;100658.41;5032354;28;20194;-86
2022/11/14 02:09:36;;;;;;;2.27;2.17;;;;;;;4.51;100.00;100658.13;5032243;28;20168;-84
2022/11/14 02:12:05;;;;;;;3.27;3.13;;;;;;;4.48;100.00;100648.66;5032279;28;20184;-84
2022/11/14 02:14:31;;;;;;;2.03;1.97;;;;;;;4.46;100.00;100645.38;5031969;28;20795;-83
2022/11/14 02:16:57;;;;;;;1.37;1.37;;;;;;;4.45;100.00;100641.06;5032470;28;20176;-85
2022/11/14 02:19:22;;;;;;;12.93;8.87;;;;;;;4.46;100.00;100642.69;5032442;28;20522;-84
2022/11/14 02:21:47;;;;;;;1.67;1.57;;;;;;;4.47;100.00;100644.31;5032093;28;20662;-85
2022/11/14 02:24:13;;;;;;;31.20;6.80;;;;;;;4.41;100.00;100637.28;5031821;28;20175;-85
2022/11/14 02:26:41;;;;;;;2.47;2.27;;;;;;;4.45;100.00;100634.84;5031787;28;20618;-85
2022/11/14 02:29:08;;;;;;;3.97;3.73;;;;;;;4.39;100.00;100631.31;5031850;28;20191;-85
2022/11/14 02:31:34;;;;;;;2.70;1.77;;;;;;;4.32;100.00;100625.31;5032008;28;20180;-86
2022/11/14 02:33:59;;;;;;;3.77;2.37;;;;;;;4.32;100.00;100622.63;5031605;28;20210;-85
2022/11/14 02:36:25;;;;;;;3.37;3.13;;;;;;;4.31;100.00;100629.09;5031730;28;20580;-85
2022/11/14 02:38:50;;;;;;;12.27;6.33;;;;;;;4.29;100.00;100625.88;5031717;28;20172;-85
2022/11/14 02:41:16;;;;;;;1.83;1.77;;;;;;;4.25;100.00;100616.66;5031749;28;20180;-85
2022/11/14 02:43:41;;;;;;;6.83;2.57;;;;;;;4.29;100.00;100619.63;5031469;28;20195;-84
2022/11/14 02:46:06;;;;;;;6.37;3.87;;;;;;;4.26;100.00;100618.28;5031570;28;20510;-86
2022/11/14 02:48:32;;;;;;;6.20;5.80;;;;;;;4.18;100.00;100622.31;5031573;28;20318;-85
2022/11/14 02:50:57;;;;;;;10.83;6.60;;;;;;;4.17;100.00;100623.38;5031545;28;20179;-84
2022/11/14 02:53:22;;;;;;;4.33;2.83;;;;;;;4.17;100.00;100622.56;5031826;28;20257;-86
2022/11/14 02:55:47;;;;;;;3.97;3.67;;;;;;;4.18;100.00;100625.00;5031885;28;20302;-83
2022/11/14 02:58:13;;;;;;;0.83;0.83;;;;;;;4.23;100.00;100615.31;5031796;28;20191;-86
2022/11/14 03:00:38;;;;;;;2.77;2.57;;;;;;;4.20;100.00;100610.44;5031555;28;20179;-84
2022/11/14 03:03:03;;;;;;;10.70;3.67;;;;;;;4.14;100.00;100607.69;5030952;28;20249;-85
2022/11/14 03:05:28;;;;;;;8.23;6.93;;;;;;;4.02;100.00;100604.38;5031306;28;20627;-85
2022/11/14 03:07:55;;;;;;;35.17;11.47;;;;;;;3.96;100.00;100605.47;5031125;28;20184;-83
2022/11/14 03:10:21;;;;;;;5.07;3.10;;;;;;;3.94;100.00;100604.91;5031103;28;20175;-84
2022/11/14 03:12:47;;;;;;;8.77;7.33;;;;;;;3.93;100.00;100599.78;5031043;28;20175;-84
2022/11/14 03:15:12;;;;;;;15.77;8.67;;;;;;;3.95;100.00;100597.63;5030925;28;20638;-81
2022/11/14 03:17:38;;;;;;;10.83;1.90;;;;;;;3.92;100.00;100596.25;5031035;28;20658;-84
2022/11/14 03:20:04;;;;;;;2.63;2.57;;;;;;;3.97;100.00;100598.97;5031012;28;20179;-86
2022/11/14 03:22:30;;;;;;;7.73;6.00;;;;;;;3.91;100.00;100600.03;5030761;28;20184;-85
2022/11/14 03:24:55;;;;;;;1.33;1.30;;;;;;;3.88;100.00;100593.25;5030907;28;20202;-83
2022/11/14 03:27:21;;;;;;;7.77;1.50;;;;;;;3.89;100.00;100585.94;5030862;28;20214;-83
2022/11/14 03:29:47;;;;;;;9.60;5.53;;;;;;;3.85;100.00;100584.84;5030867;28;20183;-85
2022/11/14 03:32:12;;;;;;;0.53;0.53;;;;;;;3.87;100.00;100586.22;5031163;28;20172;-85
2022/11/14 03:34:38;;;;;;;1.20;1.20;;;;;;;3.82;100.00;100577.28;5030721;28;20216;-84
2022/11/14 03:37:03;;;;;;;18.00;5.07;;;;;;;3.79;100.00;100575.13;5030759;28;20237;-83
2022/11/14 03:39:28;;;;;;;3.10;2.97;;;;;;;3.75;100.00;100577.50;5030697;28;20267;-84
2022/11/14 03:41:54;;;;;;;0.10;0.10;;;;;;;3.77;100.00;100575.38;5030926;28;20178;-82
2022/11/14 03:44:19;;;;;;;5.67;5.20;;;;;;;3.73;100.00;100566.16;5030461;28;20627;-85
2022/11/14 03:46:44;;;;;;;2.30;2.20;;;;;;;3.66;100.00;100565.59;5030632;28;20712;-85
2022/11/14 03:49:09;;;;;;;1.77;1.77;;;;;;;3.67;100.00;100566.41;5030633;28;20176;-85
2022/11/14 03:51:35;;;;;;;2.47;2.37;;;;;;;3.66;100.00;100553.97;5030668;28;20187;-84
2022/11/14 03:54:00;;;;;;;8.77;4.17;;;;;;;3.65;100.00;100546.94;5030230;28;20592;-82
2022/11/14 03:56:26;;;;;;;11.90;6.70;;;;;;;3.59;100.00;100543.38;5030649;28;20191;-85
2022/11/14 03:58:51;;;;;;;5.57;3.77;;;;;;;3.62;100.00;100540.19;5030570;28;20172;-84
2022/11/14 04:01:16;;;;;;;12.47;5.93;;;;;;;3.59;100.00;100533.41;5030656;28;20679;-83
2022/11/14 04:03:42;;;;;;;10.70;6.63;;;;;;;3.59;100.00;100540.69;5030119;28;20657;-84
2022/11/14 04:06:07;;;;;;;16.67;9.77;;;;;;;3.55;100.00;100545.00;5030416;28;20282;-85
2022/11/14 04:08:32;;;;;;;1.70;1.70;;;;;;;3.59;100.00;100546.91;5030803;28;20180;-83
2022/11/14 04:10:58;;;;;;;2.10;1.87;;;;;;;3.57;100.00;100549.06;5030587;28;20191;-82
2022/11/14 04:13:23;;;;;;;7.37;6.87;;;;;;;3.56;100.00;100546.63;5028977;28;20200;-83
2022/11/14 04:15:58;;;;;;;14.03;8.23;;;;;;;3.56;100.00;100536.63;5030435;28;20173;-86
2022/11/14 04:18:24;;;;;;;2.53;2.43;;;;;;;3.53;100.00;100536.34;5030267;28;20615;-85
2022/11/14 04:20:50;;;;;;;4.83;2.53;;;;;;;3.54;100.00;100536.09;5030368;28;20696;-83
2022/11/14 04:23:15;;;;;;;5.70;3.20;;;;;;;3.54;100.00;100533.38;5030183;28;20251;-84
2022/11/14 04:25:45;;;;;;;10.40;5.63;;;;;;;3.45;100.00;100531.44;5030392;28;20263;-82
2022/11/14 04:28:10;;;;;;;8.40;6.10;;;;;;;3.38;100.00;100522.75;5030623;28;20226;-83
2022/11/14 04:30:36;;;;;;;10.43;8.27;;;;;;;3.41;100.00;100527.63;5030279;28;20234;-81
2022/11/14 04:33:01;;;;;;;7.30;6.67;;;;;;;3.38;100.00;100528.97;5030496;28;20183;-84
2022/11/14 04:35:26;;;;;;;7.30;6.17;;;;;;;3.38;100.00;100528.97;5030229;28;20635;-85
2022/11/14 04:37:51;;;;;;;7.37;6.47;;;;;;;3.30;100.00;100521.34;5030471;28;20179;-85
2022/11/14 04:40:17;;;;;;;3.60;3.13;;;;;;;3.32;100.00;100516.50;5030094;28;20656;-84
2022/11/14 04:42:42;;;;;;;11.53;4.60;;;;;;;3.26;100.00;100521.06;5029836;28;20179;-83
2022/11/14 04:45:08;;;;;;;2.33;1.27;;;;;;;3.29;100.00;100514.34;5030068;28;20208;-84
2022/11/14 04:47:33;;;;;;;2.60;2.47;;;;;;;3.27;100.00;100511.09;5030134;28;20168;-84
2022/11/14 04:49:59;;;;;;;4.13;3.27;;;;;;;3.24;100.00;100498.13;5032174;28;20200;-84
2022/11/14 04:52:24;;;;;;;15.53;5.73;;;;;;;3.29;100.00;100512.44;5033709;28;20211;-83
2022/11/14 04:54:49;;;;;;;3.60;3.30;;;;;;;3.34;100.00;100517.09;5033582;28;20545;-83
2022/11/14 04:57:16;;;;;;;3.10;2.90;;;;;;;3.33;100.00;100503.81;5033589;28;20247;-82
2022/11/14 04:59:42;;;;;;;1.17;1.07;;;;;;;3.37;100.00;100511.16;5033656;28;20168;-83
2022/11/14 05:02:07;;;;;;;2.30;2.17;;;;;;;3.35;100.00;100510.59;5033200;28;20180;-83
2022/11/14 05:04:32;;;;;;;3.20;2.93;;;;;;;3.32;100.00;100513.81;5033293;28;20724;-84
2022/11/14 05:06:57;;;;;;;2.97;2.73;;;;;;;3.30;100.00;100510.56;5033465;28;20182;-84
2022/11/14 05:09:23;;;;;;;11.23;5.07;;;;;;;3.24;100.00;100506.22;5033500;28;20697;-84
2022/11/14 05:11:48;;;;;;;9.83;6.67;;;;;;;3.22;100.00;100508.38;5033331;28;20180;-82
2022/11/14 05:14:13;;;;;;;5.50;4.33;;;;;;;3.20;100.00;100497.03;5032731;28;20254;-82
2022/11/14 05:16:39;;;;;;;23.20;6.10;;;;;;;3.23;100.00;100500.00;5033497;28;20203;-85
2022/11/14 05:19:04;;;;;;;1.00;1.00;;;;;;;3.22;100.00;100492.16;5033328;28;20180;-85
2022/11/14 05:21:29;;;;;;;12.53;3.60;;;;;;;3.20;100.00;100513.22;5033222;28;20183;-83
2022/11/14 05:23:54;;;;;;;3.17;2.97;;;;;;;3.20;100.00;100510.53;5033126;28;20564;-82
2022/11/14 05:26:20;;;;;;;4.20;4.03;;;;;;;3.12;100.00;100505.59;5033041;28;20833;-82
2022/11/14 05:28:45;;;;;;;6.03;4.07;;;;;;;3.17;100.00;100511.81;5033040;28;20223;-82
2022/11/14 05:31:16;;;;;;;0.47;0.40;;;;;;;3.23;100.00;100510.81;5032942;28;20258;-83
2022/11/14 05:33:42;;;;;;;0.60;0.60;;;;;;;3.26;100.00;100515.69;5032823;28;20206;-83
2022/11/14 05:36:10;;;;;;;7.07;6.23;;;;;;;3.28;100.00;100510.00;5033043;28;20176;-83
2022/11/14 05:38:35;;;;;;;1.93;1.93;;;;;;;3.30;100.00;100513.25;5033145;28;20374;-81
2022/11/14 05:41:05;;;;;;;1.00;1.00;;;;;;;3.28;100.00;100510.00;5032902;28;20255;-81
2022/11/14 05:43:31;;;;;;;1.80;1.80;;;;;;;3.43;100.00;100526.28;5032528;28;20639;-83
2022/11/14 05:46:00;;;;;;;0.93;0.93;;;;;;;3.42;100.00;100521.97;5032832;28;20241;-82
2022/11/14 05:48:25;;;;;;;0.40;0.40;;;;;;;3.48;100.00;100515.53;5032721;28;20164;-84
2022/11/14 05:51:01;;;;;;;2.53;2.13;;;;;;;3.43;100.00;100515.50;5032680;28;20172;-83
2022/11/14 05:53:28;;;;;;;0.07;0.07;;;;;;;3.36;100.00;100514.13;5032389;28;20560;-83
2022/11/14 05:55:54;;;;;;;4.60;2.57;;;;;;;3.46;100.00;100514.16;5032802;28;20543;-82
2022/11/14 05:58:19;;;;;;;1.40;1.30;;;;;;;3.44;100.00;100503.63;5032586;28;20176;-84
2022/11/14 06:00:45;;;;;;;0.00;0.00;;;;;;;3.34;100.00;100494.66;5031494;28;20176;-82
2022/11/14 06:03:10;;;;;;;0.10;0.10;;;;;;;3.38;100.00;100499.28;5032133;28;20180;-84
2022/11/14 06:05:36;;;;;;;0.10;0.10;;;;;;;3.46;100.00;100496.06;5014541;28;20639;-83
2022/11/14 06:08:02;;;;;;;1.80;0.93;;;;;;;3.51;100.00;100509.59;5032396;28;20225;-83
2022/11/14 06:10:28;;;;;;;0.73;0.63;;;;;;;3.52;100.00;100511.22;5032254;28;20191;-84
2022/11/14 06:12:53;;;;;;;0.00;0.00;;;;;;;3.62;100.00;100505.06;5032042;28;20168;-83
2022/11/14 06:15:19;;;;;;;0.00;0.00;;;;;;;3.46;100.00;100492.53;5032192;28;20250;-84
2022/11/14 06:17:44;;;;;;;2.87;2.67;;;;;;;3.46;100.00;100498.75;5032458;28;20202;-82
2022/11/14 06:20:12;;;;;;;0.90;0.73;;;;;;;3.45;100.00;100497.13;5032097;28;20287;-82
2022/11/14 06:22:38;;;;;;;16.30;5.90;;;;;;;3.41;100.00;100490.63;5031744;28;20553;-85
2022/11/14 06:25:04;;;;;;;8.50;5.40;;;;;;;3.31;100.00;100500.56;5031922;28;20186;-81
2022/11/14 06:27:29;;;;;;;5.57;5.10;;;;;;;3.28;100.00;100491.09;5031987;28;20533;-82
2022/11/14 06:29:55;;;;;;;0.43;0.43;;;;;;;3.22;100.00;100495.69;5032010;28;20658;-80
2022/11/14 06:32:20;;;;;;;5.37;1.83;;;;;;;3.19;100.00;100500.78;5031954;28;20804;-83
2022/11/14 06:34:45;;;;;;;0.93;0.87;;;;;;;3.26;100.00;100496.78;5031579;28;20546;-80
2022/11/14 06:37:11;;;;;;;0.00;0.00;;;;;;;3.28;100.00;100496.50;5031840;28;20207;-81
2022/11/14 06:39:36;;;;;;;1.43;1.33;;;;;;;3.26;100.00;100487.88;5032050;28;20176;-74
2022/11/14 06:42:01;;;;;;;0.00;0.00;;;;;;;3.32;100.00;100494.91;5031842;28;20179;-79
2022/11/14 06:44:26;;;;;;;0.90;0.90;;;;;;;3.39;100.00;100492.78;5031772;28;20176;-81
2022/11/14 06:46:52;;;;;;;2.27;2.17;;;;;;;3.46;100.00;100493.34;5031560;28;20257;-80
2022/11/14 06:49:17;;;;;;;4.80;2.57;;;;;;;3.41;100.00;100496.03;5031795;28;20176;-81
2022/11/14 06:51:42;;;;;;;3.80;2.27;;;;;;;3.43;100.00;100496.59;5031347;28;20187;-81
2022/11/14 06:54:11;;;;;;;0.43;0.43;;;;;;;3.48;100.00;100485.03;5031712;28;20669;-79
2022/11/14 06:56:36;;;;;;;6.30;3.63;;;;;;;3.51;100.00;100488.00;5031235;28;20190;-80
2022/11/14 06:59:02;;;;;;;0.93;0.93;;;;;;;3.37;100.00;100494.94;5031406;28;20180;-80
2022/11/14 07:01:27;;;;;;;0.40;0.40;;;;;;;3.42;100.00;100494.16;5031367;28;20302;-80
2022/11/14 07:03:53;;;;;;;5.73;2.90;;;;;;;3.42;100.00;100507.66;5030993;28;20661;-81
2022/11/14 07:06:25;;;;;;;3.10;1.60;;;;;;;3.41;100.00;100501.44;5031448;28;20183;-80
2022/11/14 07:08:52;;;;;;;2.90;2.80;;;;;;;3.40;100.00;100501.72;5031123;28;20654;-81
2022/11/14 07:11:24;;;;;;;2.63;2.43;;;;;;;3.29;100.00;100496.25;5031181;28;20210;-81
2022/11/14 07:13:57;;;;;;;6.70;3.07;;;;;;;3.42;100.00;100505.78;5030636;28;20266;-81
2022/11/14 07:16:30;;;;;;;7.73;6.07;;;;;;;3.41;100.00;100493.34;5030896;28;20171;-80
2022/11/14 07:18:57;;;;;;;0.00;0.00;;;;;;;3.50;100.00;100497.19;5031163;28;20164;-80
2022/11/14 07:21:23;;;;;;;0.00;0.00;;;;;;;3.52;100.00;100486.91;5013385;28;20258;-78
2022/11/14 07:23:49;;;;;;;1.47;1.47;;;;;;;3.58;100.00;100488.56;5013047;28;20231;-78
2022/11/14 07:26:14;;;;;;;1.33;1.10;;;;;;;3.64;100.00;100496.69;5030849;28;20172;-80
2022/11/14 07:28:42;;;;;;;0.43;0.43;;;;;;;3.64;100.00;100497.50;5030988;28;20234;-80
2022/11/14 07:31:11;;;;;;;0.00;0.00;;;;;;;3.70;100.00;100490.22;5030867;28;20176;-81
2022/11/14 07:33:36;;;;;;;1.10;1.10;;;;;;;3.73;100.00;100485.09;5030516;28;20291;-80
2022/11/14 07:36:02;;;;;;;7.40;4.07;;;;;;;3.71;100.00;100503.47;5030956;28;20263;-81
2022/11/14 07:38:29;;;;;;;0.10;0.10;;;;;;;3.72;100.00;100502.38;5030779;28;20203;-78
2022/11/14 07:40:56;;;;;;;5.13;4.70;;;;;;;3.77;100.00;100505.13;5030562;28;20251;-81
2022/11/14 07:43:22;;;;;;;1.77;1.77;;;;;;;3.74;100.00;100510.22;5030389;28;20690;-84
2022/11/14 07:45:47;;;;;;;1.83;1.80;;;;;;;3.75;100.00;100503.75;5030677;28;20180;-74
2022/11/14 07:48:13;;;;;;;0.93;0.77;;;;;;;3.81;100.00;100492.72;5030607;28;20642;-81
2022/11/14 07:50:38;;;;;;;2.37;2.17;;;;;;;3.77;100.00;100490.81;5030652;28;20180;-79
2022/11/14 07:53:03;;;;;;;1.67;1.63;;;;;;;3.55;100.00;100486.38;5030356;28;20175;-81
2022/11/14 07:55:29;;;;;;;10.80;3.53;;;;;;;3.53;100.00;100479.63;5030523;28;20536;-80
2022/11/14 07:57:57;;;;;;;1.03;1.03;;;;;;;3.54;100.00;100487.47;5030397;28;20175;-81
2022/11/14 08:00:23;;;;;;;6.43;3.30;;;;;;;3.47;100.00;100481.50;5030617;28;20186;-79
2022/11/14 08:02:48;;;;;;;9.50;4.60;;;;;;;3.48;100.00;100475.03;5030139;28;20180;-83
2022/11/14 08:05:13;;;;;;;2.00;2.00;;;;;;;3.62;100.00;100483.47;5030586;28;20184;-78
2022/11/14 08:07:38;;;;;;;7.63;4.33;;;;;;;3.63;100.00;100471.56;5030525;28;20207;-83
2022/11/14 08:10:04;;;;;;;6.80;1.73;;;;;;;3.66;100.00;100481.03;5030445;28;20195;-83
2022/11/14 08:12:30;;;;;;;2.37;1.03;;;;;;;3.69;100.00;100475.09;5030305;28;20168;-81
2022/11/14 08:14:55;;;;;;;0.83;0.30;;;;;;;3.80;100.00;100474.88;5030199;28;20656;-82
2022/11/14 08:17:21;;;;;;;5.90;4.63;;;;;;;3.83;100.00;100481.63;5030508;28;20232;-81
2022/11/14 08:19:46;;;;;;;0.10;0.10;;;;;;;3.87;100.00;100485.41;5030397;28;20822;-82
2022/11/14 08:22:12;;;;;;;2.07;2.07;;;;;;;3.88;100.00;100485.16;5030252;28;20179;-81
2022/11/14 08:24:37;;;;;;;1.40;1.40;;;;;;;3.91;100.00;100486.53;5031440;28;20197;-81
2022/11/14 08:27:02;;;;;;;1.97;1.87;;;;;;;3.94;100.00;100490.59;5034212;28;20515;-79
2022/11/14 08:29:27;;;;;;;4.00;3.80;;;;;;;3.97;100.00;100482.75;5034277;28;20179;-79
2022/11/14 08:31:53;;;;;;;0.00;0.00;;;;;;;3.95;100.00;100490.31;5034203;28;20571;-82
2022/11/14 08:34:19;;;;;;;1.40;1.40;;;;;;;3.96;100.00;100497.34;5033814;28;20674;-80
2022/11/14 08:36:44;;;;;;;6.97;4.90;;;;;;;3.97;100.00;100495.44;5033894;28;20434;-81
2022/11/14 08:39:10;;;;;;;2.53;2.33;;;;;;;3.94;100.00;100491.41;5033554;28;20716;-82
2022/11/14 08:41:35;;;;;;;5.00;4.67;;;;;;;3.95;100.00;100495.72;5033622;28;20183;-77
2022/11/14 08:44:00;;;;;;;0.57;0.57;;;;;;;3.84;100.00;100486.75;5033255;28;20217;-80
2022/11/14 08:46:25;;;;;;;0.07;0.07;;;;;;;3.87;100.00;100480.81;5033386;28;20191;-75
2022/11/14 08:48:51;;;;;;;0.00;0.00;;;;;;;3.93;100.00;100486.25;5034146;28;20180;-75
2022/11/14 08:51:16;;;;;;;3.07;2.87;;;;;;;3.93;100.00;100487.06;5033445;28;20175;-74
2022/11/14 08:53:41;;;;;;;7.77;4.33;;;;;;;4.05;100.00;100490.34;5032949;28;20283;-75
2022/11/14 08:56:09;;;;;;;1.53;1.43;;;;;;;4.06;100.00;100486.56;5033681;28;20263;-74
2022/11/14 08:58:34;;;;;;;1.50;1.50;;;;;;;4.13;100.00;100483.59;5033199;28;20581;-74
2022/11/14 09:01:05;;;;;;;4.33;4.13;;;;;;;4.21;100.00;100485.78;5033261;28;20208;-74
2022/11/14 09:03:31;;;;;;;3.67;3.47;;;;;;;4.23;100.00;100480.91;5032708;28;20196;-74
2022/11/14 09:05:56;;;;;;;1.53;1.53;;;;;;;4.27;100.00;100489.28;5033457;28;20208;-74
2022/11/14 09:08:21;;;;;;;2.33;2.23;;;;;;;4.22;100.00;100492.81;5033391;28;20180;-74
2022/11/14 09:10:47;;;;;;;0.90;0.90;;;;;;;4.32;100.00;100490.09;5031613;28;20179;-76
2022/11/14 09:13:12;;;;;;;1.57;1.47;;;;;;;4.20;100.00;100486.06;5030608;28;20190;-73
2022/11/14 09:15:38;;;;;;;1.70;1.53;;;;;;;4.31;100.00;100488.47;5033167;28;20217;-83
2022/11/14 09:18:03;;;;;;;1.60;1.60;;;;;;;4.39;100.00;100479.03;5031739;28;20176;-74
2022/11/14 09:20:29;;;;;;;3.20;3.00;;;;;;;4.38;100.00;100480.13;5032893;28;20172;-75
2022/11/14 09:22:57;;;;;;;5.97;2.43;;;;;;;4.42;100.00;100483.91;5032896;28;20255;-74
2022/11/14 09:25:23;;;;;;;7.90;2.70;;;;;;;4.44;100.00;100482.53;5033077;28;20174;-74
2022/11/14 09:27:48;;;;;;;4.33;2.20;;;;;;;4.43;100.00;100474.69;5033161;28;20183;-74
2022/11/14 09:30:14;;;;;;;6.43;2.97;;;;;;;4.31;100.00;100468.75;5032928;28;20168;-74
2022/11/14 09:32:39;;;;;;;4.40;3.50;;;;;;;4.24;100.00;100457.38;5032773;28;20210;-74
2022/11/14 09:35:05;;;;;;;0.77;0.77;;;;;;;4.35;100.00;100461.72;5032509;28;20199;-76
2022/11/14 09:37:30;;;;;;;0.60;0.60;;;;;;;4.30;100.00;100461.72;5032795;28;20821;-77
2022/11/14 09:39:56;;;;;;;7.27;6.63;;;;;;;4.09;100.00;100459.00;5032823;28;20171;-74
2022/11/14 09:42:51;;;;;;;2.87;2.67;;;;;;;4.00;100.00;100459.78;5032810;28;20536;-74
2022/11/14 09:45:17;;;;;;;1.87;1.67;;;;;;;4.12;100.00;100444.94;5032573;28;20625;-74
2022/11/14 09:47:46;;;;;;;2.53;2.43;;;;;;;4.26;100.00;100441.69;5032601;28;20199;-74
2022/11/14 09:50:15;;;;;;;4.37;4.07;;;;;;;4.02;100.00;100430.59;5030755;28;20172;-74
2022/11/14 09:52:46;;;;;;;3.70;3.50;;;;;;;3.98;100.00;100416.00;5028945;28;20180;-74
2022/11/14 09:55:19;;;;;;;0.00;0.00;;;;;;;3.94;100.00;100412.19;5032230;28;20230;-74
2022/11/14 09:57:44;;;;;;;1.63;1.57;;;;;;;3.96;100.00;100418.97;5032428;28;20658;-74
2022/11/14 10:00:17;;;;;;;0.00;0.00;;;;;;;3.97;100.00;100417.88;5032300;28;20206;-74
2022/11/14 10:02:57;;;;;;;0.00;0.00;;;;;;;4.05;100.00;100417.38;5032155;28;20194;-79
2022/11/14 10:05:40;;;;;;;3.13;2.87;;;;;;;4.24;100.00;100414.13;5032251;28;20206;-81
2022/11/14 10:08:15;;;;;;;1.17;1.17;;;;;;;4.36;100.00;100417.38;5032235;28;20194;-76
2022/11/14 10:10:57;;;;;;;4.50;3.60;;;;;;;4.46;100.00;100414.66;5032217;28;20171;-76
2022/11/14 10:14:01;;;;;;;0.37;0.37;;;;;;;4.33;100.00;100426.81;5032232;28;20171;-79
2022/11/14 10:16:35;;;;;;;2.80;1.07;;;;;;;4.31;100.00;100412.75;5008626;28;20191;-79
2022/11/14 10:19:17;;;;;;;1.90;1.90;;;;;;;4.45;100.00;100421.16;5032082;28;20178;-76
2022/11/14 10:22:18;;;;;;;1.90;1.87;;;;;;;4.65;100.00;100431.16;5014291;28;20840;-74
2022/11/14 10:25:06;;;;;;;0.43;0.43;;;;;;;4.78;100.00;100428.72;4970342;28;20631;-73
2022/11/14 10:28:02;;;;;;;2.87;1.60;;;;;;;4.64;100.00;100416.00;5028254;28;20279;-74
2022/11/14 10:30:39;;;;;;;5.93;5.30;;;;;;;4.51;100.00;100405.75;5031966;28;20462;-73
2022/11/14 10:33:37;;;;;;;0.60;0.60;;;;;;;4.53;100.00;100411.69;5047035;28;20519;-74
2022/11/14 10:36:15;;;;;;;1.10;1.10;;;;;;;4.51;100.00;100414.66;5025916;28;20538;-74
2022/11/14 10:38:53;;;;;;;2.07;2.00;;;;;;;4.48;100.00;100407.06;5031696;28;20657;-74
2022/11/14 10:41:20;;;;;;;1.30;1.13;;;;;;;4.59;100.00;100421.41;5031591;28;20216;-74
2022/11/14 10:43:47;;;;;;;0.00;0.00;;;;;;;4.73;100.00;100427.88;5031420;28;20176;-75
2022/11/14 10:46:32;;;;;;;2.87;2.67;;;;;;;4.84;100.00;100420.56;5031395;28;20184;-74
2022/11/14 10:48:58;;;;;;;1.00;1.00;;;;;;;4.96;100.00;100429.22;5031308;28;20171;-74
2022/11/14 10:51:32;;;;;;;0.00;0.00;;;;;;;4.94;100.00;100417.84;5031596;28;20176;-78
2022/11/14 10:54:04;;;;;;;4.40;4.10;;;;;;;4.83;100.00;100418.94;5030977;28;20262;-74
2022/11/14 10:56:29;;;;;;;15.50;4.30;;;;;;;4.90;100.00;100419.47;5031382;28;20182;-76
2022/11/14 10:58:55;;;;;;;0.53;0.53;;;;;;;4.98;100.00;100422.44;5031277;28;20176;-73
2022/11/14 11:01:35;;;;;;;1.63;1.53;;;;;;;4.86;100.00;100416.50;5031725;28;20623;-76
2022/11/14 11:04:20;;;;;;;2.47;2.33;;;;;;;5.10;100.00;100418.59;5030735;28;20229;-78
2022/11/14 11:06:46;;;;;;;3.27;2.97;;;;;;;4.96;100.00;100421.09;5031208;28;20233;-77
2022/11/14 11:12:20;;;;;;;0.17;0.13;;;;;;;5.32;100.00;100413.63;5030989;28;20194;-74
2022/11/14 11:14:48;;;;;;;8.47;7.40;;;;;;;5.07;100.00;100409.16;5030953;28;20208;-79
2022/11/14 11:17:14;;;;;;;0.70;0.70;;;;;;;5.11;100.00;100409.41;5031125;28;20171;-81
2022/11/14 11:19:40;;;;;;;6.50;5.70;;;;;;;5.00;100.00;100408.63;5030916;28;20230;-75
2022/11/14 11:22:28;;;;;;;1.67;1.60;;;;;;;5.06;100.00;100407.50;5030983;28;20180;-74
2022/11/14 11:24:53;;;;;;;0.47;0.47;;;;;;;5.09;100.00;100409.69;5011051;28;20172;-77
2022/11/14 11:27:25;;;;;;;8.83;6.33;;;;;;;5.04;100.00;100402.34;5011240;28;20180;-76
2022/11/14 11:30:03;;;;;;;2.53;1.93;;;;;;;5.22;100.00;100395.56;5011534;28;20184;-74